Terminal Aerodrome Forecast
Issued by NWS Wilmington, NC

Home | Current Version | Previous Version | Text Only | Print | Product List | Glossary On
Versions: 1 2 3 4 5 6 7 8 9 10 11 12 13
000
FTUS42 KILM 172329
TAFLBT
TAF
KLBT 172329Z 1800/1824 00000KT P6SM BKN080
     FM180400 00000KT P6SM BKN040
      TEMPO 1808/1812 4SM BR
     FM181200 24006KT P6SM OVC040=

USA.gov is the U.S. government's official web portal to all federal, state and local government web resources and services.